Time;durP1;ratioP1;P1;durP2;ratioP2;P2;SDS_P1;SDS_P2;PMS_P1;PMS_P2;Temp;Humidity;BMP_temperature;BMP_pressure;BME280_temperature;BME280_humidity;BME280_pressure;Samples;Min_cycle;Max_cycle;Signal;HPM_P1;HPM_P2
2022/11/26 00:01:52;;;;;;;;;;;;;;;;;;5057068;28;7113;-67
2022/11/26 00:04:23;;;;;;;;;;;;;;;;;;5056927;28;7171;-67
2022/11/26 00:06:49;;;;;;;;;;;;;;;;;;5057007;28;7196;-67
2022/11/26 00:09:29;;;;;;;;;;;;;;;;;;5056934;28;7092;-67
2022/11/26 00:11:54;;;;;;;;;;;;;;;;;;5056683;28;7165;-67
2022/11/26 00:14:27;;;;;;;;;;;;;;;;;;5056715;28;7200;-67
2022/11/26 00:16:52;;;;;;;;;;;;;;;;;;5056773;28;7009;-67
2022/11/26 00:19:24;;;;;;;;;;;;;;;;;;5057114;28;7155;-66
2022/11/26 00:21:50;;;;;;;;;;;;;;;;;;5056763;28;6945;-67
2022/11/26 00:24:27;;;;;;;;;;;;;;;;;;5056545;28;7096;-67
2022/11/26 00:26:56;;;;;;;;;;;;;;;;;;5056678;28;7396;-67
2022/11/26 00:29:22;;;;;;;;;;;;;;;;;;5056273;28;7193;-67
2022/11/26 00:31:48;;;;;;;;;;;;;;;;;;5056514;28;7404;-67
2022/11/26 00:34:13;;;;;;;;;;;;;;;;;;5056497;28;7099;-67
2022/11/26 00:36:45;;;;;;;;;;;;;;;;;;5056534;28;7013;-67
2022/11/26 00:39:15;;;;;;;;;;;;;;;;;;5056112;28;6975;-67
2022/11/26 00:41:45;;;;;;;;;;;;;;;;;;5056505;28;7030;-67
2022/11/26 00:44:18;;;;;;;;;;;;;;;;;;5056235;28;7145;-67
2022/11/26 00:47:04;;;;;;;;;;;;;;;;;;5056275;28;7285;-67
2022/11/26 00:49:29;;;;;;;;;;;;;;;;;;5056149;28;6912;-67
2022/11/26 00:51:55;;;;;;;;;;;;;;;;;;5055860;28;7168;-67
2022/11/26 00:54:35;;;;;;;;;;;;;;;;;;5056085;28;7389;-67
2022/11/26 00:57:00;;;;;;;;;;;;;;;;;;5055991;28;7021;-67
2022/11/26 00:59:27;;;;;;;;;;;;;;;;;;5056008;28;7381;-67
2022/11/26 01:02:16;;;;;;;;;;;;;;;;;;5055937;28;6844;-67
2022/11/26 01:04:41;;;;;;;;;;;;;;;;;;5055587;28;6956;-67
2022/11/26 01:07:08;;;;;;;;;;;;;;;;;;5055884;28;7314;-67
2022/11/26 01:09:34;;;;;;;;;;;;;;;;;;5055817;28;7282;-67
2022/11/26 01:11:59;;;;;;;;;;;;;;;;;;5056865;28;7273;-67
2022/11/26 01:14:25;;;;;;;;;;;;;;;;;;5056320;28;7235;-65
2022/11/26 01:16:55;;;;;;;;;;;;;;;;;;5055625;28;7305;-66
2022/11/26 01:19:21;;;;;;;;;;;;;;;;;;5055728;28;7064;-66
2022/11/26 01:21:47;;;;;;;;;;;;;;;;;;5055648;28;7121;-66
2022/11/26 01:24:12;;;;;;;;;;;;;;;;;;5049080;28;7002;-65
2022/11/26 01:26:42;;;;;;;;;;;;;;;;;;5037510;28;8392;-65
2022/11/26 01:29:16;;;;;;;;;;;;;;;;;;5055394;28;7138;-65
2022/11/26 01:31:41;;;;;;;;;;;;;;;;;;5055013;28;7045;-65
2022/11/26 01:34:07;;;;;;;;;;;;;;;;;;5055388;28;7090;-65
2022/11/26 01:36:35;;;;;;;;;;;;;;;;;;5055187;28;7146;-66
2022/11/26 01:39:04;;;;;;;;;;;;;;;;;;5055185;28;7360;-65
2022/11/26 01:41:49;;;;;;;;;;;;;;;;;;5055383;28;7376;-65
2022/11/26 01:44:18;;;;;;;;;;;;;;;;;;5055201;28;6969;-65
2022/11/26 01:46:44;;;;;;;;;;;;;;;;;;5055358;28;7102;-65
2022/11/26 01:49:24;;;;;;;;;;;;;;;;;;5055179;28;7054;-65
2022/11/26 01:52:09;;;;;;;;;;;;;;;;;;5055204;28;7180;-65
2022/11/26 01:54:39;;;;;;;;;;;;;;;;;;5054624;28;8509;-66
2022/11/26 01:57:08;;;;;;;;;;;;;;;;;;5055206;28;7384;-65
2022/11/26 02:02:38;;;;;;;;;;;;;;;;;;5054629;28;6975;-66
2022/11/26 02:05:10;;;;;;;;;;;;;;;;;;5054640;28;7175;-65
2022/11/26 02:07:47;;;;;;;;;;;;;;;;;;5054570;28;7239;-65
2022/11/26 02:10:14;;;;;;;;;;;;;;;;;;5054743;28;7068;-65
2022/11/26 02:12:40;;;;;;;;;;;;;;;;;;5054735;28;7178;-65
2022/11/26 02:18:26;;;;;;;;;;;;;;;;;;5054593;28;6681;-65
2022/11/26 02:21:00;;;;;;;;;;;;;;;;;;5054602;28;7325;-65
2022/11/26 02:23:35;;;;;;;;;;;;;;;;;;5055502;28;7226;-65
2022/11/26 02:29:12;;;;;;;;;;;;;;;;;;5054468;28;6696;-65
2022/11/26 02:31:45;;;;;;;;;;;;;;;;;;5054667;28;7601;-65
2022/11/26 02:34:24;;;;;;;;;;;;;;;;;;5054350;28;7865;-65
2022/11/26 02:36:56;;;;;;;;;;;;;;;;;;5054195;28;6950;-65
2022/11/26 02:39:26;;;;;;;;;;;;;;;;;;5036400;28;8704;-65
2022/11/26 02:41:54;;;;;;;;;;;;;;;;;;5054607;28;7451;-66
2022/11/26 02:44:22;;;;;;;;;;;;;;;;;;5056342;28;7219;-65
2022/11/26 02:46:53;;;;;;;;;;;;;;;;;;5058625;28;7108;-66
2022/11/26 02:49:20;;;;;;;;;;;;;;;;;;5058482;28;7211;-66
2022/11/26 02:51:53;;;;;;;;;;;;;;;;;;5058563;28;7182;-65
2022/11/26 02:54:22;;;;;;;;;;;;;;;;;;5058385;28;6952;-65
2022/11/26 02:56:49;;;;;;;;;;;;;;;;;;5058305;28;7201;-65
2022/11/26 02:59:15;;;;;;;;;;;;;;;;;;5058141;28;7219;-65
2022/11/26 03:04:39;;;;;;;;;;;;;;;;;;5058531;28;6909;-64
2022/11/26 03:07:08;;;;;;;;;;;;;;;;;;5058110;28;7200;-65
2022/11/26 03:09:55;;;;;;;;;;;;;;;;;;5058047;28;7386;-65
2022/11/26 03:12:38;;;;;;;;;;;;;;;;;;5058158;28;7360;-66
2022/11/26 03:15:04;;;;;;;;;;;;;;;;;;5057920;28;7190;-65
2022/11/26 03:17:43;;;;;;;;;;;;;;;;;;5058013;28;6956;-65
2022/11/26 03:20:09;;;;;;;;;;;;;;;;;;5058130;28;7147;-66
2022/11/26 03:22:35;;;;;;;;;;;;;;;;;;5057627;28;7212;-65
2022/11/26 03:25:00;;;;;;;;;;;;;;;;;;5057363;28;7212;-65
2022/11/26 03:27:26;;;;;;;;;;;;;;;;;;5057484;28;7182;-66
2022/11/26 03:30:20;;;;;;;;;;;;;;;;;;5057612;28;7148;-65
2022/11/26 03:32:46;;;;;;;;;;;;;;;;;;5058589;28;6916;-66
2022/11/26 03:35:26;;;;;;;;;;;;;;;;;;5057471;28;7133;-65
2022/11/26 03:37:51;;;;;;;;;;;;;;;;;;5057532;28;7160;-66
2022/11/26 03:40:19;;;;;;;;;;;;;;;;;;5057543;28;7139;-66
2022/11/26 03:42:45;;;;;;;;;;;;;;;;;;5057525;28;7382;-66
2022/11/26 03:45:40;;;;;;;;;;;;;;;;;;5058557;28;7162;-66
2022/11/26 03:48:05;;;;;;;;;;;;;;;;;;5039954;28;6960;-66
2022/11/26 03:50:31;;;;;;;;;;;;;;;;;;5057210;28;7176;-66
2022/11/26 03:52:56;;;;;;;;;;;;;;;;;;5056966;28;7236;-66
2022/11/26 03:55:22;;;;;;;;;;;;;;;;;;5056832;28;7043;-65
2022/11/26 03:57:59;;;;;;;;;;;;;;;;;;5057158;28;7383;-65
2022/11/26 04:00:25;;;;;;;;;;;;;;;;;;5057145;28;7083;-66
2022/11/26 04:02:50;;;;;;;;;;;;;;;;;;5058234;28;7168;-66
2022/11/26 04:05:16;;;;;;;;;;;;;;;;;;5057066;28;7120;-65
2022/11/26 04:07:42;;;;;;;;;;;;;;;;;;5057027;28;7169;-71
2022/11/26 04:13:10;;;;;;;;;;;;;;;;;;5057032;28;7172;-71
2022/11/26 04:15:37;;;;;;;;;;;;;;;;;;5056794;28;7391;-71
2022/11/26 04:18:03;;;;;;;;;;;;;;;;;;5056922;28;7181;-71
2022/11/26 04:20:28;;;;;;;;;;;;;;;;;;5056575;28;6906;-71
2022/11/26 04:23:10;;;;;;;;;;;;;;;;;;5056693;28;7208;-71
2022/11/26 04:25:45;;;;;;;;;;;;;;;;;;5056504;28;6991;-71
2022/11/26 04:28:12;;;;;;;;;;;;;;;;;;5038785;28;6869;-65
2022/11/26 04:33:40;;;;;;;;;;;;;;;;;;5056949;28;7022;-71
2022/11/26 04:36:20;;;;;;;;;;;;;;;;;;5056600;28;7281;-71
2022/11/26 04:38:46;;;;;;;;;;;;;;;;;;5056695;28;7027;-71
2022/11/26 04:41:23;;;;;;;;;;;;;;;;;;5056372;28;7369;-71
2022/11/26 04:43:49;;;;;;;;;;;;;;;;;;5056532;28;7222;-71
2022/11/26 04:46:38;;;;;;;;;;;;;;;;;;5056305;28;7147;-71
2022/11/26 04:49:03;;;;;;;;;;;;;;;;;;5055995;28;7399;-71
2022/11/26 04:51:29;;;;;;;;;;;;;;;;;;5056112;28;7389;-71
2022/11/26 04:53:55;;;;;;;;;;;;;;;;;;5056957;28;7334;-71
2022/11/26 04:56:45;;;;;;;;;;;;;;;;;;5055959;28;7349;-72
2022/11/26 04:59:10;;;;;;;;;;;;;;;;;;5055721;28;6951;-65
2022/11/26 05:01:48;;;;;;;;;;;;;;;;;;5056049;28;7097;-65
2022/11/26 05:04:14;;;;;;;;;;;;;;;;;;5055949;28;7085;-66
2022/11/26 05:07:06;;;;;;;;;;;;;;;;;;5054791;28;7174;-66
2022/11/26 05:09:32;;;;;;;;;;;;;;;;;;5055952;28;7226;-65
2022/11/26 05:11:57;;;;;;;;;;;;;;;;;;5056054;28;7309;-65
2022/11/26 05:14:23;;;;;;;;;;;;;;;;;;5055843;28;7034;-66
2022/11/26 05:16:48;;;;;;;;;;;;;;;;;;5055694;28;7025;-66
2022/11/26 05:19:14;;;;;;;;;;;;;;;;;;5055566;28;7153;-65
2022/11/26 05:22:10;;;;;;;;;;;;;;;;;;5055662;28;7425;-66
2022/11/26 05:24:37;;;;;;;;;;;;;;;;;;5055369;28;6970;-65
2022/11/26 05:27:03;;;;;;;;;;;;;;;;;;5055506;28;6840;-66
2022/11/26 05:29:28;;;;;;;;;;;;;;;;;;5055404;28;7029;-66
2022/11/26 05:31:54;;;;;;;;;;;;;;;;;;5055563;28;7262;-66
2022/11/26 05:34:20;;;;;;;;;;;;;;;;;;5055547;28;7364;-66
2022/11/26 05:36:45;;;;;;;;;;;;;;;;;;5055306;28;7165;-66
2022/11/26 05:39:11;;;;;;;;;;;;;;;;;;5056109;28;7533;-65
2022/11/26 05:44:39;;;;;;;;;;;;;;;;;;5054931;28;7092;-65
2022/11/26 05:47:30;;;;;;;;;;;;;;;;;;5055286;28;7061;-66
2022/11/26 05:49:56;;;;;;;;;;;;;;;;;;5055768;28;7536;-65
2022/11/26 05:52:22;;;;;;;;;;;;;;;;;;5054811;28;6961;-65
2022/11/26 05:54:48;;;;;;;;;;;;;;;;;;5055576;28;7195;-65
2022/11/26 05:57:13;;;;;;;;;;;;;;;;;;5055076;28;7044;-65
2022/11/26 05:59:58;;;;;;;;;;;;;;;;;;5054855;28;7184;-65
2022/11/26 06:02:24;;;;;;;;;;;;;;;;;;5055393;28;7234;-66
2022/11/26 06:04:50;;;;;;;;;;;;;;;;;;5054584;28;7193;-65
2022/11/26 06:07:28;;;;;;;;;;;;;;;;;;5054597;28;7192;-66
2022/11/26 06:09:54;;;;;;;;;;;;;;;;;;5054842;28;6824;-71
2022/11/26 06:12:19;;;;;;;;;;;;;;;;;;5054820;28;7468;-75
2022/11/26 06:14:45;;;;;;;;;;;;;;;;;;5054802;28;7282;-63
2022/11/26 06:17:11;;;;;;;;;;;;;;;;;;5054662;28;7472;-63
2022/11/26 06:19:44;;;;;;;;;;;;;;;;;;5054231;28;7291;-64
2022/11/26 06:22:10;;;;;;;;;;;;;;;;;;5054577;28;7159;-63
2022/11/26 06:24:35;;;;;;;;;;;;;;;;;;5055519;28;7027;-69
2022/11/26 06:27:01;;;;;;;;;;;;;;;;;;5050172;28;7147;-63
2022/11/26 06:29:27;;;;;;;;;;;;;;;;;;5033154;28;8332;-63
2022/11/26 06:32:00;;;;;;;;;;;;;;;;;;5034432;28;6960;-64
2022/11/26 06:34:26;;;;;;;;;;;;;;;;;;5033235;28;8431;-63
2022/11/26 06:36:56;;;;;;;;;;;;;;;;;;5033234;28;8453;-63
2022/11/26 06:39:22;;;;;;;;;;;;;;;;;;5034381;28;6833;-64
2022/11/26 06:41:49;;;;;;;;;;;;;;;;;;5034612;28;7500;-63
2022/11/26 06:44:14;;;;;;;;;;;;;;;;;;5034152;28;6950;-63
2022/11/26 06:46:47;;;;;;;;;;;;;;;;;;5033263;28;7350;-63
2022/11/26 06:49:12;;;;;;;;;;;;;;;;;;5034178;28;7132;-64
2022/11/26 06:51:55;;;;;;;;;;;;;;;;;;5034344;28;7272;-64
2022/11/26 06:54:20;;;;;;;;;;;;;;;;;;5034447;28;7184;-64
2022/11/26 06:59:37;;;;;;;;;;;;;;;;;;5035017;28;7002;-69
2022/11/26 07:02:05;;;;;;;;;;;;;;;;;;5034382;28;7023;-70
2022/11/26 07:04:31;;;;;;;;;;;;;;;;;;5034277;28;7172;-70
2022/11/26 07:07:29;;;;;;;;;;;;;;;;;;5034272;28;7099;-70
2022/11/26 07:09:55;;;;;;;;;;;;;;;;;;5034935;28;7815;-70
2022/11/26 07:12:21;;;;;;;;;;;;;;;;;;5034129;28;6961;-70
2022/11/26 07:14:48;;;;;;;;;;;;;;;;;;5034249;28;7109;-70
2022/11/26 07:17:14;;;;;;;;;;;;;;;;;;5034313;28;6980;-70
2022/11/26 07:19:39;;;;;;;;;;;;;;;;;;5034196;28;7086;-70
2022/11/26 07:22:31;;;;;;;;;;;;;;;;;;5033891;28;6989;-70
2022/11/26 07:25:16;;;;;;;;;;;;;;;;;;5033947;28;7185;-70
2022/11/26 07:27:41;;;;;;;;;;;;;;;;;;5034851;28;7171;-70
2022/11/26 07:30:07;;;;;;;;;;;;;;;;;;5017034;28;7357;-70
2022/11/26 07:33:00;;;;;;;;;;;;;;;;;;5036491;28;7209;-70
2022/11/26 07:35:25;;;;;;;;;;;;;;;;;;5037660;28;6916;-70
2022/11/26 07:40:54;;;;;;;;;;;;;;;;;;5037370;28;6677;-64
2022/11/26 07:43:20;;;;;;;;;;;;;;;;;;5037487;28;7393;-64
2022/11/26 07:45:46;;;;;;;;;;;;;;;;;;5037482;28;7140;-64
2022/11/26 07:51:19;;;;;;;;;;;;;;;;;;5037338;28;6921;-63
2022/11/26 07:53:45;;;;;;;;;;;;;;;;;;5037425;28;7171;-64
2022/11/26 07:59:24;;;;;;;;;;;;;;;;;;5037071;28;6890;-64
2022/11/26 08:01:50;;;;;;;;;;;;;;;;;;5037857;28;7270;-63
2022/11/26 08:04:15;;;;;;;;;;;;;;;;;;5037102;28;7385;-64
2022/11/26 08:06:41;;;;;;;;;;;;;;;;;;5037291;28;7042;-64
2022/11/26 08:12:44;;;;;;;;;;;;;;;;;;5036899;28;6965;-69
2022/11/26 08:15:10;;;;;;;;;;;;;;;;;;5036980;28;7222;-70
2022/11/26 08:17:35;;;;;;;;;;;;;;;;;;5037090;28;7173;-70
2022/11/26 08:20:04;;;;;;;;;;;;;;;;;;5037207;28;7095;-70
2022/11/26 08:22:30;;;;;;;;;;;;;;;;;;5036711;28;7042;-70
2022/11/26 08:24:55;;;;;;;;;;;;;;;;;;5035700;28;7459;-70
2022/11/26 08:27:52;;;;;;;;;;;;;;;;;;5036795;28;7039;-70
2022/11/26 08:30:18;;;;;;;;;;;;;;;;;;5036609;28;7098;-70
2022/11/26 08:32:46;;;;;;;;;;;;;;;;;;5036603;28;6990;-70
2022/11/26 08:35:12;;;;;;;;;;;;;;;;;;5036696;28;7225;-70
2022/11/26 08:37:38;;;;;;;;;;;;;;;;;;5036480;28;6987;-70
2022/11/26 08:40:04;;;;;;;;;;;;;;;;;;5036628;28;7123;-70
2022/11/26 08:48:37;;;;;;;;;;;;;;;;;;5051964;28;6681;-65
2022/11/26 08:51:13;;;;;;;;;;;;;;;;;;5055684;28;7370;-64
2022/11/26 08:53:38;;;;;;;;;;;;;;;;;;5055987;28;7072;-64
2022/11/26 08:56:15;;;;;;;;;;;;;;;;;;5055311;28;7075;-63
2022/11/26 08:58:43;;;;;;;;;;;;;;;;;;5038040;28;8413;-64
2022/11/26 09:01:10;;;;;;;;;;;;;;;;;;5055838;28;7130;-64
2022/11/26 09:03:37;;;;;;;;;;;;;;;;;;5055476;28;7492;-63
2022/11/26 09:06:12;;;;;;;;;;;;;;;;;;5055216;28;8080;-63
2022/11/26 09:09:11;;;;;;;;;;;;;;;;;;5055252;28;7178;-63
2022/11/26 09:11:41;;;;;;;;;;;;;;;;;;5053487;28;7202;-64
2022/11/26 09:14:09;;;;;;;;;;;;;;;;;;5055354;28;7485;-64
2022/11/26 09:16:53;;;;;;;;;;;;;;;;;;5055157;28;7181;-63
2022/11/26 09:19:18;;;;;;;;;;;;;;;;;;5055247;28;7123;-64
2022/11/26 09:21:45;;;;;;;;;;;;;;;;;;5055996;28;7092;-64
2022/11/26 09:24:12;;;;;;;;;;;;;;;;;;5053312;28;7165;-63
2022/11/26 09:26:38;;;;;;;;;;;;;;;;;;5055274;28;7335;-63
2022/11/26 09:29:06;;;;;;;;;;;;;;;;;;5056106;28;7118;-64
2022/11/26 09:31:32;;;;;;;;;;;;;;;;;;5055024;28;6923;-64
2022/11/26 09:34:04;;;;;;;;;;;;;;;;;;5055179;28;8378;-63
2022/11/26 09:36:30;;;;;;;;;;;;;;;;;;5055112;28;7414;-63
2022/11/26 09:39:18;;;;;;;;;;;;;;;;;;5055286;28;7326;-64
2022/11/26 09:45:19;;;;;;;;;;;;;;;;;;5055257;28;6792;-64
2022/11/26 09:47:50;;;;;;;;;;;;;;;;;;5054809;28;7432;-64
2022/11/26 09:53:31;;;;;;;;;;;;;;;;;;5054431;28;6681;-63
2022/11/26 09:56:00;;;;;;;;;;;;;;;;;;5054906;28;7433;-64
2022/11/26 10:07:22;;;;;;;;;;;;;;;;;;5054774;28;6967;-64
2022/11/26 10:09:58;;;;;;;;;;;;;;;;;;5054843;28;7073;-64
2022/11/26 10:12:54;;;;;;;;;;;;;;;;;;5054746;28;7386;-64
2022/11/26 10:18:38;;;;;;;;;;;;;;;;;;5054746;28;6903;-64
2022/11/26 10:21:33;;;;;;;;;;;;;;;;;;5054285;28;8901;-64
2022/11/26 10:24:21;;;;;;;;;;;;;;;;;;5040683;28;7404;-64
2022/11/26 10:26:48;;;;;;;;;;;;;;;;;;5037157;28;9078;-64
2022/11/26 10:29:50;;;;;;;;;;;;;;;;;;5054584;28;7025;-63
2022/11/26 10:32:22;;;;;;;;;;;;;;;;;;5054988;28;7089;-64
2022/11/26 10:34:57;;;;;;;;;;;;;;;;;;5054459;28;7145;-64
2022/11/26 10:37:25;;;;;;;;;;;;;;;;;;5054413;28;6942;-64
2022/11/26 10:42:58;;;;;;;;;;;;;;;;;;5054927;28;6965;-63
2022/11/26 10:45:42;;;;;;;;;;;;;;;;;;5033992;28;8818;-63
2022/11/26 10:48:14;;;;;;;;;;;;;;;;;;5053785;28;6819;-64
2022/11/26 10:56:55;;;;;;;;;;;;;;;;;;5053890;28;6941;-64
2022/11/26 10:59:26;;;;;;;;;;;;;;;;;;5053441;28;7155;-64
2022/11/26 11:02:11;;;;;;;;;;;;;;;;;;5053387;28;7550;-64
2022/11/26 11:04:43;;;;;;;;;;;;;;;;;;5033874;28;7426;-64
2022/11/26 11:07:29;;;;;;;;;;;;;;;;;;5020249;28;8463;-64
2022/11/26 11:10:02;;;;;;;;;;;;;;;;;;5037949;28;7192;-64
2022/11/26 11:12:38;;;;;;;;;;;;;;;;;;5038232;28;7818;-64
2022/11/26 11:15:24;;;;;;;;;;;;;;;;;;5038064;28;7133;-64
2022/11/26 11:18:01;;;;;;;;;;;;;;;;;;5037975;28;6985;-64
2022/11/26 11:20:31;;;;;;;;;;;;;;;;;;5037597;28;6968;-64
2022/11/26 11:23:16;;;;;;;;;;;;;;;;;;5037808;28;7162;-63
2022/11/26 11:25:44;;;;;;;;;;;;;;;;;;5037686;28;7039;-64
2022/11/26 11:28:42;;;;;;;;;;;;;;;;;;5037913;28;7124;-64
2022/11/26 11:31:11;;;;;;;;;;;;;;;;;;5038018;28;7416;-64
2022/11/26 11:33:49;;;;;;;;;;;;;;;;;;5037861;28;6881;-64
2022/11/26 11:36:27;;;;;;;;;;;;;;;;;;5037676;28;7386;-64
2022/11/26 11:38:55;;;;;;;;;;;;;;;;;;5037612;28;7160;-64
2022/11/26 11:41:27;;;;;;;;;;;;;;;;;;5037663;28;7248;-64
2022/11/26 11:44:13;;;;;;;;;;;;;;;;;;5037184;28;7183;-64
2022/11/26 11:46:57;;;;;;;;;;;;;;;;;;5037376;28;6855;-64
2022/11/26 11:49:43;;;;;;;;;;;;;;;;;;5037400;28;7157;-64
2022/11/26 11:52:14;;;;;;;;;;;;;;;;;;5037876;28;7080;-64
2022/11/26 11:54:53;;;;;;;;;;;;;;;;;;5037185;28;7151;-64
2022/11/26 11:57:21;;;;;;;;;;;;;;;;;;5049577;28;7172;-64
2022/11/26 12:03:06;;;;;;;;;;;;;;;;;;5056473;28;6789;-64
2022/11/26 12:05:41;;;;;;;;;;;;;;;;;;5056938;28;7182;-64
2022/11/26 12:08:09;;;;;;;;;;;;;;;;;;5055112;28;7437;-64
2022/11/26 12:13:54;;;;;;;;;;;;;;;;;;5057062;28;7008;-64
2022/11/26 12:16:23;;;;;;;;;;;;;;;;;;5056424;28;7536;-64
2022/11/26 12:19:01;;;;;;;;;;;;;;;;;;5056900;28;6981;-64
2022/11/26 12:21:49;;;;;;;;;;;;;;;;;;5056628;28;7183;-64
2022/11/26 12:24:36;;;;;;;;;;;;;;;;;;5056448;28;7301;-64
2022/11/26 12:27:07;;;;;;;;;;;;;;;;;;5056776;28;6949;-64
2022/11/26 12:29:39;;;;;;;;;;;;;;;;;;5056638;28;7476;-64
2022/11/26 12:32:14;;;;;;;;;;;;;;;;;;5056683;28;7085;-64
2022/11/26 12:34:51;;;;;;;;;;;;;;;;;;5056613;28;7013;-64
2022/11/26 12:37:25;;;;;;;;;;;;;;;;;;5056587;28;7237;-64
2022/11/26 12:40:13;;;;;;;;;;;;;;;;;;5056360;28;7284;-64
2022/11/26 12:42:44;;;;;;;;;;;;;;;;;;5045412;28;7231;-64
2022/11/26 12:45:28;;;;;;;;;;;;;;;;;;5055805;28;7138;-64
2022/11/26 12:47:59;;;;;;;;;;;;;;;;;;5056150;28;7304;-64
2022/11/26 12:50:43;;;;;;;;;;;;;;;;;;5056145;28;7115;-64
2022/11/26 12:53:21;;;;;;;;;;;;;;;;;;5056095;28;7225;-64
2022/11/26 12:55:49;;;;;;;;;;;;;;;;;;5056140;28;7142;-64
2022/11/26 12:58:42;;;;;;;;;;;;;;;;;;5056103;28;7679;-63
2022/11/26 13:01:09;;;;;;;;;;;;;;;;;;5055960;28;7389;-63
2022/11/26 13:03:35;;;;;;;;;;;;;;;;;;5056032;28;7167;-70
2022/11/26 13:06:01;;;;;;;;;;;;;;;;;;5056070;28;7147;-70
2022/11/26 13:08:29;;;;;;;;;;;;;;;;;;5053825;28;7160;-70
2022/11/26 13:11:00;;;;;;;;;;;;;;;;;;5056104;28;7045;-70
2022/11/26 13:13:26;;;;;;;;;;;;;;;;;;5054731;28;7491;-71
2022/11/26 13:16:10;;;;;;;;;;;;;;;;;;5075323;28;7041;-63
2022/11/26 13:18:40;;;;;;;;;;;;;;;;;;5075312;28;7174;-64
2022/11/26 13:21:37;;;;;;;;;;;;;;;;;;5075280;28;7445;-64
2022/11/26 13:24:03;;;;;;;;;;;;;;;;;;5075319;28;7122;-63
2022/11/26 13:26:58;;;;;;;;;;;;;;;;;;5075538;28;6939;-64
2022/11/26 13:29:36;;;;;;;;;;;;;;;;;;5054777;28;7164;-64
2022/11/26 13:32:24;;;;;;;;;;;;;;;;;;5055440;28;6910;-64
2022/11/26 13:34:56;;;;;;;;;;;;;;;;;;5042779;28;7142;-64
2022/11/26 13:37:27;;;;;;;;;;;;;;;;;;5035277;28;7499;-64
2022/11/26 13:40:23;;;;;;;;;;;;;;;;;;5033782;28;8697;-64
2022/11/26 13:42:55;;;;;;;;;;;;;;;;;;5030624;28;7347;-64
2022/11/26 13:45:33;;;;;;;;;;;;;;;;;;5035502;28;7445;-64
2022/11/26 13:48:01;;;;;;;;;;;;;;;;;;5035054;28;7200;-64
2022/11/26 13:50:27;;;;;;;;;;;;;;;;;;5035136;28;7440;-64
2022/11/26 13:53:09;;;;;;;;;;;;;;;;;;5035318;28;7186;-64
2022/11/26 13:55:57;;;;;;;;;;;;;;;;;;5034985;28;7075;-64
2022/11/26 13:58:46;;;;;;;;;;;;;;;;;;5034883;28;7354;-64
2022/11/26 14:01:35;;;;;;;;;;;;;;;;;;5034868;28;7408;-64
2022/11/26 14:04:03;;;;;;;;;;;;;;;;;;5034810;28;7350;-64
2022/11/26 14:09:43;;;;;;;;;;;;;;;;;;5032914;28;7419;-63
2022/11/26 14:12:37;;;;;;;;;;;;;;;;;;5034817;28;7206;-64
2022/11/26 14:18:14;;;;;;;;;;;;;;;;;;5054473;28;6794;-64
2022/11/26 14:21:00;;;;;;;;;;;;;;;;;;5054574;28;7202;-64
2022/11/26 14:23:59;;;;;;;;;;;;;;;;;;5055109;28;7084;-63
2022/11/26 14:26:25;;;;;;;;;;;;;;;;;;5012985;28;7232;-64
2022/11/26 14:29:10;;;;;;;;;;;;;;;;;;5012931;28;7221;-64
2022/11/26 14:31:45;;;;;;;;;;;;;;;;;;4996356;28;8748;-63
2022/11/26 14:37:18;;;;;;;;;;;;;;;;;;5012830;28;7099;-63
2022/11/26 14:39:44;;;;;;;;;;;;;;;;;;5014626;28;7312;-64
2022/11/26 14:42:39;;;;;;;;;;;;;;;;;;5016697;28;7195;-64
2022/11/26 14:45:17;;;;;;;;;;;;;;;;;;5016659;28;7218;-64
2022/11/26 14:47:45;;;;;;;;;;;;;;;;;;5016758;28;7295;-64
2022/11/26 14:50:30;;;;;;;;;;;;;;;;;;5016763;28;7588;-64
2022/11/26 14:52:59;;;;;;;;;;;;;;;;;;5016527;28;7293;-63
2022/11/26 14:55:32;;;;;;;;;;;;;;;;;;5016297;28;7241;-63
2022/11/26 14:58:00;;;;;;;;;;;;;;;;;;5016356;28;7122;-64
2022/11/26 15:00:27;;;;;;;;;;;;;;;;;;5016725;28;7196;-64
2022/11/26 15:02:53;;;;;;;;;;;;;;;;;;5052585;28;7316;-64
2022/11/26 15:05:42;;;;;;;;;;;;;;;;;;5058042;28;7181;-64
2022/11/26 15:14:19;;;;;;;;;;;;;;;;;;5057818;28;6686;-64
2022/11/26 15:16:55;;;;;;;;;;;;;;;;;;5057948;28;6982;-64
2022/11/26 15:19:21;;;;;;;;;;;;;;;;;;5056944;28;7283;-63
2022/11/26 15:21:47;;;;;;;;;;;;;;;;;;5056816;28;7057;-63
2022/11/26 15:24:15;;;;;;;;;;;;;;;;;;5057859;28;7183;-64
2022/11/26 15:26:44;;;;;;;;;;;;;;;;;;5058142;28;6847;-64
2022/11/26 15:29:30;;;;;;;;;;;;;;;;;;5058223;28;7140;-64
2022/11/26 15:31:56;;;;;;;;;;;;;;;;;;5057853;28;7207;-63
2022/11/26 15:34:23;;;;;;;;;;;;;;;;;;5057698;28;7397;-64
2022/11/26 15:36:49;;;;;;;;;;;;;;;;;;5057733;28;7174;-63
2022/11/26 15:39:25;;;;;;;;;;;;;;;;;;5057292;28;6973;-64
2022/11/26 15:41:53;;;;;;;;;;;;;;;;;;5057596;28;7096;-63
2022/11/26 15:44:22;;;;;;;;;;;;;;;;;;5057426;28;7219;-64
2022/11/26 15:46:51;;;;;;;;;;;;;;;;;;5057515;28;7075;-64
2022/11/26 15:49:21;;;;;;;;;;;;;;;;;;5057348;28;7358;-63
2022/11/26 15:52:09;;;;;;;;;;;;;;;;;;5056338;28;7273;-63
2022/11/26 15:54:37;;;;;;;;;;;;;;;;;;5051662;28;7430;-63
2022/11/26 15:57:09;;;;;;;;;;;;;;;;;;5073064;28;7290;-63
2022/11/26 15:59:44;;;;;;;;;;;;;;;;;;5057156;28;7329;-63
2022/11/26 16:02:19;;;;;;;;;;;;;;;;;;5057134;28;7262;-64
2022/11/26 16:04:49;;;;;;;;;;;;;;;;;;5057145;28;7312;-64
2022/11/26 16:07:17;;;;;;;;;;;;;;;;;;5056803;28;6988;-63
2022/11/26 16:09:44;;;;;;;;;;;;;;;;;;5057103;28;7148;-63
2022/11/26 16:12:24;;;;;;;;;;;;;;;;;;5057084;28;7037;-63
2022/11/26 16:14:50;;;;;;;;;;;;;;;;;;5057154;28;6940;-63
2022/11/26 16:17:17;;;;;;;;;;;;;;;;;;5057652;28;7169;-63
2022/11/26 16:19:48;;;;;;;;;;;;;;;;;;5056854;28;7115;-63
2022/11/26 16:22:16;;;;;;;;;;;;;;;;;;5056906;28;7076;-63
2022/11/26 16:24:42;;;;;;;;;;;;;;;;;;5057039;28;6961;-63
2022/11/26 16:27:17;;;;;;;;;;;;;;;;;;5056718;28;7010;-63
2022/11/26 16:29:44;;;;;;;;;;;;;;;;;;5056587;28;7041;-63
2022/11/26 16:32:10;;;;;;;;;;;;;;;;;;5056504;28;7231;-64
2022/11/26 16:34:35;;;;;;;;;;;;;;;;;;5056357;28;7192;-64
2022/11/26 16:37:02;;;;;;;;;;;;;;;;;;5056586;28;7119;-63
2022/11/26 16:39:30;;;;;;;;;;;;;;;;;;5056478;28;7238;-63
2022/11/26 16:41:55;;;;;;;;;;;;;;;;;;5056455;28;7223;-64
2022/11/26 16:44:21;;;;;;;;;;;;;;;;;;5056450;28;7092;-63
2022/11/26 16:46:50;;;;;;;;;;;;;;;;;;5056371;28;7159;-63
2022/11/26 16:49:15;;;;;;;;;;;;;;;;;;5056400;28;7175;-63
2022/11/26 16:51:41;;;;;;;;;;;;;;;;;;5056554;28;7062;-63
2022/11/26 16:54:08;;;;;;;;;;;;;;;;;;5056399;28;6883;-63
2022/11/26 16:56:37;;;;;;;;;;;;;;;;;;5056211;28;6945;-63
2022/11/26 16:59:16;;;;;;;;;;;;;;;;;;5056122;28;7231;-63
2022/11/26 17:01:42;;;;;;;;;;;;;;;;;;5055884;28;6845;-63
2022/11/26 17:04:11;;;;;;;;;;;;;;;;;;5055135;28;7162;-63
2022/11/26 17:06:38;;;;;;;;;;;;;;;;;;5056043;28;6811;-63
2022/11/26 17:09:05;;;;;;;;;;;;;;;;;;5055492;28;7164;-63
2022/11/26 17:11:30;;;;;;;;;;;;;;;;;;5055964;28;7436;-63
2022/11/26 17:13:56;;;;;;;;;;;;;;;;;;5055849;28;7135;-63
2022/11/26 17:16:22;;;;;;;;;;;;;;;;;;5055820;28;7278;-63
2022/11/26 17:18:48;;;;;;;;;;;;;;;;;;5055451;28;7796;-63
2022/11/26 17:21:15;;;;;;;;;;;;;;;;;;5055912;28;7065;-63
2022/11/26 17:23:41;;;;;;;;;;;;;;;;;;5055611;28;7422;-63
2022/11/26 17:26:12;;;;;;;;;;;;;;;;;;5055539;28;7089;-63
2022/11/26 17:28:37;;;;;;;;;;;;;;;;;;5055689;28;7142;-63
2022/11/26 17:31:03;;;;;;;;;;;;;;;;;;5055541;28;7036;-63
2022/11/26 17:33:29;;;;;;;;;;;;;;;;;;5055812;28;7166;-63
2022/11/26 17:35:55;;;;;;;;;;;;;;;;;;5055520;28;7471;-63
2022/11/26 17:38:21;;;;;;;;;;;;;;;;;;5055328;28;7116;-63
2022/11/26 17:40:47;;;;;;;;;;;;;;;;;;5055694;28;7053;-63
2022/11/26 17:43:13;;;;;;;;;;;;;;;;;;5055268;28;7141;-63
2022/11/26 17:45:39;;;;;;;;;;;;;;;;;;5053829;28;7068;-63
2022/11/26 17:48:05;;;;;;;;;;;;;;;;;;5054883;28;6996;-63
2022/11/26 17:50:32;;;;;;;;;;;;;;;;;;5055239;28;8112;-69
2022/11/26 17:52:57;;;;;;;;;;;;;;;;;;5055092;28;7182;-69
2022/11/26 17:55:25;;;;;;;;;;;;;;;;;;5055112;28;6984;-69
2022/11/26 17:57:51;;;;;;;;;;;;;;;;;;5053724;28;7175;-63
2022/11/26 18:00:22;;;;;;;;;;;;;;;;;;5054405;28;7136;-63
2022/11/26 18:02:47;;;;;;;;;;;;;;;;;;5054679;28;7143;-63
2022/11/26 18:05:13;;;;;;;;;;;;;;;;;;5054654;28;7106;-63
2022/11/26 18:07:39;;;;;;;;;;;;;;;;;;5054596;28;7195;-63
2022/11/26 18:10:06;;;;;;;;;;;;;;;;;;5054524;28;6915;-63
2022/11/26 18:12:32;;;;;;;;;;;;;;;;;;5054463;28;7117;-63
2022/11/26 18:14:59;;;;;;;;;;;;;;;;;;5053484;28;7429;-63
2022/11/26 18:17:24;;;;;;;;;;;;;;;;;;5054892;28;6938;-63
2022/11/26 18:19:50;;;;;;;;;;;;;;;;;;5055131;28;7149;-63
2022/11/26 18:22:18;;;;;;;;;;;;;;;;;;5055017;28;7214;-63
2022/11/26 18:24:56;;;;;;;;;;;;;;;;;;5053643;28;8686;-63
2022/11/26 18:27:23;;;;;;;;;;;;;;;;;;5054671;28;7143;-63
2022/11/26 18:29:49;;;;;;;;;;;;;;;;;;5054501;28;7409;-63
2022/11/26 18:32:16;;;;;;;;;;;;;;;;;;5055210;28;7087;-63
2022/11/26 18:34:41;;;;;;;;;;;;;;;;;;5054223;28;6957;-63
2022/11/26 18:37:08;;;;;;;;;;;;;;;;;;5054600;28;7248;-63
2022/11/26 18:39:34;;;;;;;;;;;;;;;;;;5054058;28;7898;-63
2022/11/26 18:42:00;;;;;;;;;;;;;;;;;;5054565;28;7401;-63
2022/11/26 18:44:25;;;;;;;;;;;;;;;;;;5054416;28;7062;-63
2022/11/26 18:46:51;;;;;;;;;;;;;;;;;;5054524;28;7199;-63
2022/11/26 18:49:16;;;;;;;;;;;;;;;;;;5054343;28;7025;-63
2022/11/26 18:51:43;;;;;;;;;;;;;;;;;;5054507;28;7263;-63
2022/11/26 18:54:09;;;;;;;;;;;;;;;;;;5054344;28;7146;-63
2022/11/26 18:56:35;;;;;;;;;;;;;;;;;;5054381;28;7174;-63
2022/11/26 18:59:01;;;;;;;;;;;;;;;;;;5054301;28;7048;-63
2022/11/26 19:01:28;;;;;;;;;;;;;;;;;;5054345;28;7089;-63
2022/11/26 19:03:56;;;;;;;;;;;;;;;;;;5054292;28;7246;-63
2022/11/26 19:06:23;;;;;;;;;;;;;;;;;;5054057;28;6924;-63